Time;durP1;ratioP1;P1;durP2;ratioP2;P2;SDS_P1;SDS_P2;PMS_P1;PMS_P2;Temp;Humidity;BMP_temperature;BMP_pressure;BME280_temperature;BME280_humidity;BME280_pressure;Samples;Min_cycle;Max_cycle;Signal;HPM_P1;HPM_P2
2023/06/03 00:00:20;;;;;;;4.05;3.85;;;;;;;;;;5201267;22;20023;-87
2023/06/03 00:02:41;;;;;;;4.10;3.80;;;;;;;;;;5178465;22;20058;-87
2023/06/03 00:05:03;;;;;;;5.00;4.55;;;;;;;;;;5178663;22;20035;-87
2023/06/03 00:07:23;;;;;;;4.10;4.00;;;;;;;;;;5178396;22;20022;-87
2023/06/03 00:09:43;;;;;;;5.38;4.30;;;;;;;;;;5178414;22;20035;-88
2023/06/03 00:12:05;;;;;;;4.53;4.43;;;;;;;;;;5186900;22;20031;-87
2023/06/03 00:14:25;;;;;;;4.30;4.20;;;;;;;;;;5178435;22;20058;-87
2023/06/03 00:16:46;;;;;;;4.40;4.20;;;;;;;;;;5178330;22;20094;-87
2023/06/03 00:19:06;;;;;;;4.63;4.53;;;;;;;;;;5178423;22;20066;-87
2023/06/03 00:21:30;;;;;;;3.95;3.85;;;;;;;;;;5178518;22;20334;-87
2023/06/03 00:23:50;;;;;;;5.03;4.82;;;;;;;;;;5201058;22;20083;-87
2023/06/03 00:26:10;;;;;;;4.20;4.07;;;;;;;;;;5201168;22;20066;-87
2023/06/03 00:28:30;;;;;;;4.70;4.60;;;;;;;;;;5201253;22;20074;-87
2023/06/03 00:30:50;;;;;;;4.32;4.13;;;;;;;;;;5186644;22;20095;-87
2023/06/03 00:33:11;;;;;;;4.35;3.95;;;;;;;;;;5186684;22;20022;-87
2023/06/03 00:35:31;;;;;;;3.75;3.65;;;;;;;;;;5178557;22;20238;-88
2023/06/03 00:37:52;;;;;;;4.40;4.25;;;;;;;;;;5178137;22;20035;-87
2023/06/03 00:40:13;;;;;;;4.00;3.90;;;;;;;;;;5209370;22;20031;-87
2023/06/03 00:42:33;;;;;;;4.00;3.72;;;;;;;;;;5178400;22;20050;-87
2023/06/03 00:44:53;;;;;;;5.00;4.70;;;;;;;;;;5178339;22;20271;-87
2023/06/03 00:47:14;;;;;;;4.80;4.68;;;;;;;;;;5209423;22;20023;-87
2023/06/03 00:49:35;;;;;;;4.55;4.35;;;;;;;;;;5201116;22;20027;-87
2023/06/03 00:51:55;;;;;;;4.85;4.70;;;;;;;;;;5178187;22;20331;-87
2023/06/03 00:54:16;;;;;;;4.97;4.78;;;;;;;;;;5209377;22;20269;-87
2023/06/03 00:56:42;;;;;;;4.03;3.92;;;;;;;;;;5200987;22;20039;-87
2023/06/03 00:59:02;;;;;;;4.75;4.45;;;;;;;;;;5178351;22;20061;-87
2023/06/03 01:01:24;;;;;;;5.55;5.20;;;;;;;;;;5178284;22;20378;-87
2023/06/03 01:03:43;;;;;;;4.93;4.30;;;;;;;;;;5121893;23;20084;-57
2023/06/03 01:06:03;;;;;;;4.60;4.40;;;;;;;;;;5126511;23;20027;-57
2023/06/03 01:08:27;;;;;;;5.18;5.03;;;;;;;;;;5126269;23;20024;-57
2023/06/03 01:10:59;;;;;;;4.53;4.43;;;;;;;;;;5125824;23;20077;-57
2023/06/03 01:13:22;;;;;;;6.43;5.88;;;;;;;;;;5102997;23;20078;-57
2023/06/03 01:15:44;;;;;;;4.20;3.92;;;;;;;;;;5126359;23;20024;-57
2023/06/03 01:18:05;;;;;;;6.57;3.93;;;;;;;;;;5126336;23;20024;-57
2023/06/03 01:20:29;;;;;;;4.97;4.68;;;;;;;;;;5126080;23;20063;-58
2023/06/03 01:22:51;;;;;;;4.78;3.83;;;;;;;;;;5126240;23;20032;-57
2023/06/03 01:25:15;;;;;;;3.95;3.85;;;;;;;;;;5126309;23;20254;-58
2023/06/03 01:27:39;;;;;;;3.80;3.63;;;;;;;;;;5126210;23;20024;-58
2023/06/03 01:29:59;;;;;;;5.40;4.85;;;;;;;;;;5126139;23;20212;-57
2023/06/03 01:32:23;;;;;;;4.75;4.45;;;;;;;;;;5126125;23;20326;-57
2023/06/03 01:34:44;;;;;;;5.60;4.05;;;;;;;;;;5116042;23;20028;-57
2023/06/03 01:37:05;;;;;;;5.35;4.93;;;;;;;;;;5126060;23;20067;-57
2023/06/03 01:39:26;;;;;;;4.80;4.60;;;;;;;;;;5126163;23;20077;-58
2023/06/03 01:41:46;;;;;;;4.07;3.97;;;;;;;;;;5126253;23;20059;-57
2023/06/03 01:44:07;;;;;;;4.53;4.28;;;;;;;;;;5126068;23;20024;-57
2023/06/03 01:46:27;;;;;;;4.70;4.60;;;;;;;;;;5126199;23;20359;-57
2023/06/03 01:48:47;;;;;;;6.85;4.90;;;;;;;;;;5126268;23;20334;-57
2023/06/03 01:51:07;;;;;;;4.35;3.78;;;;;;;;;;5126289;23;20028;-58
2023/06/03 01:53:27;;;;;;;5.10;4.80;;;;;;;;;;5126002;23;20039;-58
2023/06/03 01:55:48;;;;;;;5.20;4.80;;;;;;;;;;5126305;23;20223;-57
2023/06/03 01:58:08;;;;;;;6.47;5.72;;;;;;;;;;5126092;23;20073;-58
2023/06/03 02:00:28;;;;;;;5.15;4.70;;;;;;;;;;5126086;23;20028;-58
2023/06/03 02:02:48;;;;;;;4.47;4.38;;;;;;;;;;5126244;23;20028;-58
2023/06/03 02:05:08;;;;;;;4.78;4.57;;;;;;;;;;5126085;23;20024;-57
2023/06/03 02:07:31;;;;;;;5.28;4.90;;;;;;;;;;5125985;23;20092;-57
2023/06/03 02:09:52;;;;;;;4.57;4.47;;;;;;;;;;5126198;23;20211;-57
2023/06/03 02:12:13;;;;;;;5.00;4.82;;;;;;;;;;5126014;23;20252;-57
2023/06/03 02:14:33;;;;;;;5.20;4.90;;;;;;;;;;5125940;23;20031;-57
2023/06/03 02:16:55;;;;;;;4.70;4.43;;;;;;;;;;5126031;23;20092;-57
2023/06/03 02:19:17;;;;;;;5.73;5.40;;;;;;;;;;5096829;23;20032;-57
2023/06/03 02:21:38;;;;;;;5.05;4.88;;;;;;;;;;5125959;23;20243;-57
2023/06/03 02:23:59;;;;;;;4.10;3.83;;;;;;;;;;5125996;23;20047;-57
2023/06/03 02:26:19;;;;;;;4.93;4.63;;;;;;;;;;5126056;23;20044;-57
2023/06/03 02:28:40;;;;;;;5.05;4.65;;;;;;;;;;5126054;23;20079;-57
2023/06/03 02:31:00;;;;;;;5.25;4.95;;;;;;;;;;5125848;23;20028;-58
2023/06/03 02:33:20;;;;;;;4.80;4.70;;;;;;;;;;5126003;23;20028;-57
2023/06/03 02:35:41;;;;;;;5.13;4.78;;;;;;;;;;5125995;23;20346;-58
2023/06/03 02:38:01;;;;;;;4.80;4.60;;;;;;;;;;5125771;23;20047;-57
2023/06/03 02:40:21;;;;;;;5.15;4.93;;;;;;;;;;5126025;23;20040;-57
2023/06/03 02:42:41;;;;;;;4.85;4.53;;;;;;;;;;5125976;23;20060;-57
2023/06/03 02:45:01;;;;;;;4.50;4.15;;;;;;;;;;5125741;23;20411;-57
2023/06/03 02:47:22;;;;;;;4.47;4.38;;;;;;;;;;5125967;23;20023;-56
2023/06/03 02:49:44;;;;;;;5.88;4.65;;;;;;;;;;5125983;23;20027;-57
2023/06/03 02:52:04;;;;;;;5.88;5.32;;;;;;;;;;5125661;23;20023;-57
2023/06/03 02:54:25;;;;;;;6.72;5.97;;;;;;;;;;5125840;23;20077;-57
2023/06/03 02:56:45;;;;;;;5.78;5.13;;;;;;;;;;5125968;23;20059;-58
2023/06/03 02:59:05;;;;;;;4.80;4.50;;;;;;;;;;5126174;23;20028;-57
2023/06/03 03:01:27;;;;;;;5.35;5.25;;;;;;;;;;5124970;23;20219;-57
2023/06/03 03:03:48;;;;;;;4.45;4.18;;;;;;;;;;5125955;23;20343;-57
2023/06/03 03:06:11;;;;;;;5.88;5.32;;;;;;;;;;5125833;23;20031;-57
2023/06/03 03:08:31;;;;;;;5.07;4.75;;;;;;;;;;5125705;23;20075;-57
2023/06/03 03:10:51;;;;;;;5.20;4.85;;;;;;;;;;5125948;23;20032;-57
2023/06/03 03:13:11;;;;;;;4.55;4.32;;;;;;;;;;5125743;23;20064;-57
2023/06/03 03:15:32;;;;;;;4.40;4.30;;;;;;;;;;5125627;23;20024;-57
2023/06/03 03:17:52;;;;;;;6.20;4.30;;;;;;;;;;5125697;23;20031;-57
2023/06/03 03:20:12;;;;;;;4.72;4.57;;;;;;;;;;5125823;23;20055;-57
2023/06/03 03:22:34;;;;;;;5.68;4.65;;;;;;;;;;5125598;23;20023;-57
2023/06/03 03:24:56;;;;;;;5.80;5.65;;;;;;;;;;5125553;23;20093;-57
2023/06/03 03:27:16;;;;;;;4.95;4.65;;;;;;;;;;5125692;23;20056;-57
2023/06/03 03:29:37;;;;;;;4.78;4.57;;;;;;;;;;5125667;23;20350;-57
2023/06/03 03:32:06;;;;;;;4.78;4.60;;;;;;;;;;5125401;23;20031;-57
2023/06/03 03:34:26;;;;;;;7.28;5.53;;;;;;;;;;5125655;23;20044;-57
2023/06/03 03:36:46;;;;;;;4.85;4.38;;;;;;;;;;5125668;23;20032;-57
2023/06/03 03:39:07;;;;;;;5.38;4.97;;;;;;;;;;5125376;23;20059;-57
2023/06/03 03:41:28;;;;;;;5.82;5.28;;;;;;;;;;5125458;23;20055;-57
2023/06/03 03:43:51;;;;;;;6.72;4.95;;;;;;;;;;5125660;23;20024;-57
2023/06/03 03:46:11;;;;;;;5.63;5.32;;;;;;;;;;5125499;23;20027;-58
2023/06/03 03:48:32;;;;;;;5.85;5.55;;;;;;;;;;5125240;23;20031;-57
2023/06/03 03:50:53;;;;;;;6.15;4.97;;;;;;;;;;5125550;23;20254;-57
2023/06/03 03:53:15;;;;;;;4.93;4.73;;;;;;;;;;5125461;23;20024;-57
2023/06/03 03:55:41;;;;;;;11.57;5.47;;;;;;;;;;5125313;23;20247;-57
2023/06/03 03:58:08;;;;;;;5.40;5.10;;;;;;;;;;5125438;23;20028;-57
2023/06/03 04:00:29;;;;;;;5.47;5.25;;;;;;;;;;5125512;23;20063;-57
2023/06/03 04:02:51;;;;;;;4.95;4.85;;;;;;;;;;5125727;23;20113;-59
2023/06/03 04:05:15;;;;;;;5.25;5.15;;;;;;;;;;5125207;23;20077;-59
2023/06/03 04:07:36;;;;;;;5.35;4.78;;;;;;;;;;5125401;23;20064;-59
2023/06/03 04:09:56;;;;;;;5.07;4.93;;;;;;;;;;5114123;23;20350;-59
2023/06/03 04:12:18;;;;;;;4.68;4.43;;;;;;;;;;5125037;23;20024;-59
2023/06/03 04:14:45;;;;;;;5.78;5.50;;;;;;;;;;5126680;23;20043;-59
2023/06/03 04:17:06;;;;;;;10.75;5.75;;;;;;;;;;5126678;23;20040;-59
2023/06/03 04:19:32;;;;;;;6.18;5.85;;;;;;;;;;5126407;23;20043;-59
2023/06/03 04:21:53;;;;;;;5.70;5.57;;;;;;;;;;5126313;23;20040;-59
2023/06/03 04:24:13;;;;;;;6.40;5.97;;;;;;;;;;5126583;23;20023;-59
2023/06/03 04:26:37;;;;;;;5.45;5.18;;;;;;;;;;5126599;23;20052;-59
2023/06/03 04:28:57;;;;;;;4.65;4.53;;;;;;;;;;5126475;23;20084;-59
2023/06/03 04:31:17;;;;;;;6.18;5.88;;;;;;;;;;5126412;23;20027;-59
2023/06/03 04:33:38;;;;;;;5.45;5.25;;;;;;;;;;5126553;23;20023;-59
2023/06/03 04:35:58;;;;;;;5.50;5.15;;;;;;;;;;5126424;23;20338;-58
2023/06/03 04:38:18;;;;;;;5.32;5.10;;;;;;;;;;5126412;23;20031;-58
2023/06/03 04:40:39;;;;;;;5.68;5.00;;;;;;;;;;5134727;23;20031;-59
2023/06/03 04:43:03;;;;;;;6.70;5.78;;;;;;;;;;5126379;23;20028;-58
2023/06/03 04:45:27;;;;;;;5.70;5.32;;;;;;;;;;5126299;23;20024;-59
2023/06/03 04:47:47;;;;;;;5.78;5.47;;;;;;;;;;5126466;23;20090;-59
2023/06/03 04:50:09;;;;;;;5.25;5.15;;;;;;;;;;5126504;23;20212;-59
2023/06/03 04:52:31;;;;;;;4.85;4.55;;;;;;;;;;5126209;23;20019;-58
2023/06/03 04:54:52;;;;;;;6.23;5.87;;;;;;;;;;5126363;23;20031;-58
2023/06/03 04:57:12;;;;;;;4.30;4.20;;;;;;;;;;5126792;23;20024;-58
2023/06/03 04:59:32;;;;;;;5.25;4.85;;;;;;;;;;5126344;23;20255;-59
2023/06/03 05:01:52;;;;;;;5.90;5.53;;;;;;;;;;5126300;23;20028;-59
2023/06/03 05:04:13;;;;;;;5.45;5.05;;;;;;;;;;5126472;23;20024;-58
2023/06/03 05:06:36;;;;;;;6.45;6.15;;;;;;;;;;5126292;23;20334;-59
2023/06/03 05:08:56;;;;;;;5.60;5.20;;;;;;;;;;5126167;23;20024;-59
2023/06/03 05:11:16;;;;;;;5.60;5.50;;;;;;;;;;5126402;23;20129;-59
2023/06/03 05:13:37;;;;;;;5.82;5.45;;;;;;;;;;5126301;23;20259;-59
2023/06/03 05:15:57;;;;;;;6.75;6.43;;;;;;;;;;5126120;23;20035;-59
2023/06/03 05:18:17;;;;;;;5.97;5.68;;;;;;;;;;5126375;23;20063;-59
2023/06/03 05:20:38;;;;;;;6.43;5.97;;;;;;;;;;5126487;23;20334;-59
2023/06/03 05:22:58;;;;;;;6.35;6.15;;;;;;;;;;5126201;23;20052;-59
2023/06/03 05:25:19;;;;;;;5.85;5.63;;;;;;;;;;5125651;23;20263;-59
2023/06/03 05:27:38;;;;;;;5.72;5.60;;;;;;;;;;5126346;23;20216;-59
2023/06/03 05:30:00;;;;;;;6.60;6.25;;;;;;;;;;5126151;23;20108;-58
2023/06/03 05:32:20;;;;;;;6.45;6.22;;;;;;;;;;5126021;23;20067;-58
2023/06/03 05:34:40;;;;;;;5.32;5.22;;;;;;;;;;5126417;23;20260;-58
2023/06/03 05:37:01;;;;;;;5.88;5.70;;;;;;;;;;5126295;23;20039;-58
2023/06/03 05:39:21;;;;;;;5.47;5.35;;;;;;;;;;5125936;23;20024;-59
2023/06/03 05:41:41;;;;;;;4.88;4.65;;;;;;;;;;5126315;23;20063;-59
2023/06/03 05:44:02;;;;;;;6.35;5.80;;;;;;;;;;5126210;23;20331;-59
2023/06/03 05:46:22;;;;;;;4.50;4.30;;;;;;;;;;5126003;23;20023;-58
2023/06/03 05:48:43;;;;;;;5.65;5.53;;;;;;;;;;5126149;23;20330;-58
2023/06/03 05:51:03;;;;;;;10.15;6.38;;;;;;;;;;5126198;23;20024;-58
2023/06/03 05:53:25;;;;;;;4.97;4.78;;;;;;;;;;5125934;23;20259;-58
2023/06/03 05:55:45;;;;;;;5.63;5.30;;;;;;;;;;5126123;23;20024;-59
2023/06/03 05:58:05;;;;;;;5.30;5.20;;;;;;;;;;5126198;23;20047;-59
2023/06/03 06:00:27;;;;;;;5.47;5.05;;;;;;;;;;5126066;23;20281;-59
2023/06/03 06:02:48;;;;;;;5.25;5.10;;;;;;;;;;5126083;23;20236;-59
2023/06/03 06:05:09;;;;;;;5.38;5.28;;;;;;;;;;5126245;23;20097;-58
2023/06/03 06:07:29;;;;;;;5.07;4.72;;;;;;;;;;5126096;23;20024;-59
2023/06/03 06:09:50;;;;;;;4.32;4.22;;;;;;;;;;5125937;23;20028;-59
2023/06/03 06:12:10;;;;;;;5.90;5.47;;;;;;;;;;5126085;23;20208;-59
2023/06/03 06:14:30;;;;;;;4.88;4.78;;;;;;;;;;5126130;23;20068;-59
2023/06/03 06:16:52;;;;;;;7.57;6.60;;;;;;;;;;5125903;23;20068;-59
2023/06/03 06:19:12;;;;;;;4.13;4.03;;;;;;;;;;5126103;23;20028;-59
2023/06/03 06:21:32;;;;;;;4.85;4.65;;;;;;;;;;5126140;23;20051;-59
2023/06/03 06:23:53;;;;;;;4.00;3.85;;;;;;;;;;5125946;23;20069;-59
2023/06/03 06:26:14;;;;;;;3.90;3.72;;;;;;;;;;5103894;23;20028;-59
2023/06/03 06:28:35;;;;;;;5.35;5.03;;;;;;;;;;5126085;23;20024;-59
2023/06/03 06:30:56;;;;;;;6.78;4.28;;;;;;;;;;5125874;23;20056;-59
2023/06/03 06:33:16;;;;;;;3.92;3.83;;;;;;;;;;5125817;23;20031;-59
2023/06/03 06:35:36;;;;;;;4.22;3.83;;;;;;;;;;5106980;23;20031;-59
2023/06/03 06:37:57;;;;;;;4.07;3.85;;;;;;;;;;5125977;23;20350;-59
2023/06/03 06:40:21;;;;;;;3.70;3.60;;;;;;;;;;5125820;23;20097;-59
2023/06/03 06:42:41;;;;;;;4.50;3.95;;;;;;;;;;5125907;23;20024;-59
2023/06/03 06:45:08;;;;;;;3.60;3.45;;;;;;;;;;5125992;23;20073;-59
2023/06/03 06:47:32;;;;;;;3.72;3.63;;;;;;;;;;5125840;23;20388;-59
2023/06/03 06:49:55;;;;;;;2.78;2.67;;;;;;;;;;5125826;23;20091;-59
2023/06/03 06:52:16;;;;;;;3.20;2.90;;;;;;;;;;5125915;23;20023;-59
2023/06/03 06:54:37;;;;;;;2.90;2.80;;;;;;;;;;5125905;23;20100;-59
2023/06/03 06:56:59;;;;;;;;;;;;;;;;;;5126220;23;20023;-59
2023/06/03 06:59:19;;;;;;;3.13;3.03;;;;;;;;;;5125873;23;20230;-59
2023/06/03 07:01:40;;;;;;;3.28;3.17;;;;;;;;;;5125935;23;20056;-59
2023/06/03 07:04:00;;;;;;;2.72;2.72;;;;;;;;;;5125785;23;20327;-59
2023/06/03 07:06:21;;;;;;;2.33;2.28;;;;;;;;;;5125794;23;20068;-59
2023/06/03 07:08:42;;;;;;;2.55;2.55;;;;;;;;;;5125796;23;20024;-59
2023/06/03 07:11:03;;;;;;;3.03;2.65;;;;;;;;;;5125767;23;20027;-59
2023/06/03 07:13:24;;;;;;;2.47;2.30;;;;;;;;;;5125621;23;20080;-59
2023/06/03 07:15:45;;;;;;;3.53;2.40;;;;;;;;;;5125802;23;20028;-59
2023/06/03 07:18:05;;;;;;;2.97;2.88;;;;;;;;;;5125621;23;20069;-59
2023/06/03 07:20:35;;;;;;;2.85;2.75;;;;;;;;;;5125651;23;20023;-58
2023/06/03 07:22:56;;;;;;;2.80;2.70;;;;;;;;;;5125575;23;20331;-59
2023/06/03 07:25:28;;;;;;;2.90;2.80;;;;;;;;;;5108553;23;20028;-58
2023/06/03 07:27:48;;;;;;;1.98;1.88;;;;;;;;;;5125665;23;20024;-58
2023/06/03 07:30:15;;;;;;;2.97;2.75;;;;;;;;;;5125488;23;20028;-58
2023/06/03 07:32:35;;;;;;;2.00;1.77;;;;;;;;;;5125455;23;20060;-58
2023/06/03 07:34:55;;;;;;;4.40;4.25;;;;;;;;;;5125476;23;20027;-57
2023/06/03 07:37:17;;;;;;;2.38;2.28;;;;;;;;;;5125494;23;20105;-57
2023/06/03 07:39:38;;;;;;;2.03;2.03;;;;;;;;;;5125386;23;20028;-56
2023/06/03 07:41:58;;;;;;;1.98;1.98;;;;;;;;;;5125628;23;20031;-56
2023/06/03 07:44:37;;;;;;;2.33;2.10;;;;;;;;;;5125403;23;20055;-56
2023/06/03 07:46:58;;;;;;;1.98;1.88;;;;;;;;;;5122823;23;20043;-57
2023/06/03 07:49:18;;;;;;;2.35;2.25;;;;;;;;;;5126412;23;20048;-57
2023/06/03 07:51:40;;;;;;;1.92;1.40;;;;;;;;;;5126576;23;20063;-57
2023/06/03 07:54:02;;;;;;;1.58;1.58;;;;;;;;;;5126725;23;20024;-56
2023/06/03 07:56:22;;;;;;;1.77;1.77;;;;;;;;;;5126542;23;20108;-57
2023/06/03 07:58:43;;;;;;;4.45;1.55;;;;;;;;;;5126601;23;20028;-57
2023/06/03 08:01:03;;;;;;;3.83;1.90;;;;;;;;;;5126568;23;20028;-56
2023/06/03 08:03:25;;;;;;;2.05;1.85;;;;;;;;;;5126462;23;20028;-57
2023/06/03 08:05:50;;;;;;;1.65;1.55;;;;;;;;;;5126637;23;20082;-57
2023/06/03 08:08:12;;;;;;;1.95;1.85;;;;;;;;;;5126541;23;20039;-57
2023/06/03 08:10:35;;;;;;;1.50;1.50;;;;;;;;;;5126442;23;20383;-57
2023/06/03 08:12:55;;;;;;;1.63;1.58;;;;;;;;;;5126367;23;20024;-57
2023/06/03 08:15:25;;;;;;;1.65;1.55;;;;;;;;;;5126556;23;20067;-57
2023/06/03 08:17:46;;;;;;;1.60;1.60;;;;;;;;;;5126595;23;20024;-57
2023/06/03 08:20:09;;;;;;;1.40;1.40;;;;;;;;;;5126471;23;20212;-57
2023/06/03 08:22:30;;;;;;;1.80;1.67;;;;;;;;;;5126449;23;20087;-57
2023/06/03 08:24:50;;;;;;;1.33;1.27;;;;;;;;;;5122282;23;20113;-57
2023/06/03 08:27:10;;;;;;;1.50;1.40;;;;;;;;;;5126409;23;20032;-57
2023/06/03 08:29:30;;;;;;;2.55;1.70;;;;;;;;;;5126414;23;20341;-57
2023/06/03 08:31:51;;;;;;;1.02;1.02;;;;;;;;;;5122436;23;20063;-56
2023/06/03 08:34:11;;;;;;;1.50;1.40;;;;;;;;;;5126412;23;20063;-56
2023/06/03 08:36:32;;;;;;;1.45;1.35;;;;;;;;;;5126359;23;20024;-56
2023/06/03 08:38:52;;;;;;;2.25;1.30;;;;;;;;;;5126391;23;20028;-57
2023/06/03 08:41:13;;;;;;;1.20;1.20;;;;;;;;;;5126307;23;20211;-56
2023/06/03 08:43:39;;;;;;;1.60;1.50;;;;;;;;;;5126385;23;20024;-56
2023/06/03 08:46:13;;;;;;;1.13;1.13;;;;;;;;;;5126397;23;20027;-57
2023/06/03 08:48:42;;;;;;;1.73;1.10;;;;;;;;;;5126325;23;20040;-57
2023/06/03 08:51:06;;;;;;;1.58;1.13;;;;;;;;;;5126423;23;20028;-57
2023/06/03 08:53:26;;;;;;;1.95;1.25;;;;;;;;;;5126389;23;20079;-57
2023/06/03 08:55:51;;;;;;;1.20;1.20;;;;;;;;;;5126384;23;20032;-57
2023/06/03 08:58:19;;;;;;;1.48;1.30;;;;;;;;;;5126350;23;20027;-57
2023/06/03 09:00:40;;;;;;;1.10;1.10;;;;;;;;;;5126393;23;20024;-56
2023/06/03 09:03:01;;;;;;;1.20;1.20;;;;;;;;;;5126375;23;20031;-57
2023/06/03 09:05:22;;;;;;;1.27;1.23;;;;;;;;;;5126319;23;20043;-57
2023/06/03 09:07:47;;;;;;;1.73;1.45;;;;;;;;;;5126358;23;20032;-57
2023/06/03 09:10:08;;;;;;;1.40;1.30;;;;;;;;;;5126336;23;20063;-57
2023/06/03 09:12:28;;;;;;;1.10;1.10;;;;;;;;;;5126124;23;20023;-57
2023/06/03 09:14:49;;;;;;;1.70;1.60;;;;;;;;;;5126225;23;20342;-57
2023/06/03 09:17:10;;;;;;;2.50;2.38;;;;;;;;;;5126261;23;20040;-57
2023/06/03 09:19:30;;;;;;;1.95;1.10;;;;;;;;;;5126204;23;20028;-57
2023/06/03 09:21:51;;;;;;;1.00;1.00;;;;;;;;;;5126218;23;20055;-57
2023/06/03 09:24:14;;;;;;;1.00;1.00;;;;;;;;;;5126275;23;20024;-57
2023/06/03 09:26:34;;;;;;;1.75;1.10;;;;;;;;;;5126267;23;20056;-57
2023/06/03 09:28:54;;;;;;;2.28;1.52;;;;;;;;;;5126182;23;20039;-57
2023/06/03 09:31:15;;;;;;;1.75;1.10;;;;;;;;;;5126266;23;20063;-56
2023/06/03 09:33:36;;;;;;;1.33;1.23;;;;;;;;;;5126144;23;20036;-57
2023/06/03 09:36:06;;;;;;;2.22;1.20;;;;;;;;;;5126124;23;20032;-57
2023/06/03 09:38:28;;;;;;;1.25;1.20;;;;;;;;;;5126348;23;20028;-57
2023/06/03 09:40:49;;;;;;;1.20;1.20;;;;;;;;;;5126214;23;20084;-56
2023/06/03 09:43:13;;;;;;;2.50;1.95;;;;;;;;;;5126202;23;20024;-57
2023/06/03 09:45:36;;;;;;;1.63;1.52;;;;;;;;;;5126130;23;20055;-57
2023/06/03 09:47:58;;;;;;;1.40;1.00;;;;;;;;;;5126255;23;20052;-57
2023/06/03 09:50:18;;;;;;;1.10;1.00;;;;;;;;;;5121335;23;20060;-57
2023/06/03 09:52:39;;;;;;;1.20;1.20;;;;;;;;;;5126030;23;20028;-57
2023/06/03 09:55:01;;;;;;;1.60;1.45;;;;;;;;;;5126130;23;20027;-57
2023/06/03 09:57:21;;;;;;;4.22;0.95;;;;;;;;;;5126234;23;20224;-57
2023/06/03 09:59:45;;;;;;;2.67;1.38;;;;;;;;;;5126154;23;20043;-57
2023/06/03 10:02:12;;;;;;;3.25;1.15;;;;;;;;;;5126076;23;20024;-57
2023/06/03 10:04:46;;;;;;;1.27;1.20;;;;;;;;;;5103770;23;20063;-57
2023/06/03 10:07:16;;;;;;;2.22;1.30;;;;;;;;;;5106382;23;20024;-57
2023/06/03 10:09:37;;;;;;;1.40;1.10;;;;;;;;;;5126196;23;20027;-57
2023/06/03 10:11:57;;;;;;;1.70;1.13;;;;;;;;;;5125660;23;20419;-57
2023/06/03 10:14:21;;;;;;;1.27;1.15;;;;;;;;;;5126073;23;20224;-57
2023/06/03 10:17:01;;;;;;;1.50;1.00;;;;;;;;;;5126148;23;20081;-57
2023/06/03 10:19:22;;;;;;;1.55;1.50;;;;;;;;;;5126243;23;20476;-57
2023/06/03 10:21:45;;;;;;;1.00;1.00;;;;;;;;;;5126007;23;20024;-56
2023/06/03 10:24:06;;;;;;;1.00;1.00;;;;;;;;;;5126027;23;20023;-57
2023/06/03 10:26:26;;;;;;;1.20;1.10;;;;;;;;;;5126097;23;20027;-57
2023/06/03 10:28:48;;;;;;;1.15;1.15;;;;;;;;;;5126072;23;20211;-57
2023/06/03 10:31:08;;;;;;;1.20;1.20;;;;;;;;;;5126003;23;20342;-57
2023/06/03 10:33:30;;;;;;;1.33;1.23;;;;;;;;;;5125982;23;20024;-56
2023/06/03 10:35:50;;;;;;;1.40;1.15;;;;;;;;;;5126033;23;20028;-56
2023/06/03 10:38:11;;;;;;;1.13;1.02;;;;;;;;;;5125857;23;20024;-57
2023/06/03 10:40:31;;;;;;;2.05;1.40;;;;;;;;;;5125795;23;20055;-57
2023/06/03 10:42:53;;;;;;;1.40;1.30;;;;;;;;;;5126059;23;20032;-57
2023/06/03 10:45:14;;;;;;;1.73;1.73;;;;;;;;;;5125905;23;20027;-57
2023/06/03 10:47:35;;;;;;;1.63;1.58;;;;;;;;;;5125891;23;20370;-57
2023/06/03 10:50:05;;;;;;;1.30;1.30;;;;;;;;;;5126038;23;20028;-57
2023/06/03 10:52:47;;;;;;;2.05;1.27;;;;;;;;;;5125759;23;20040;-57
2023/06/03 10:55:25;;;;;;;1.52;1.42;;;;;;;;;;5125925;23;20071;-58
2023/06/03 10:58:05;;;;;;;2.05;1.20;;;;;;;;;;5125796;23;20072;-57
2023/06/03 11:00:44;;;;;;;1.80;1.35;;;;;;;;;;5125839;23;20028;-57
2023/06/03 11:03:06;;;;;;;1.35;1.25;;;;;;;;;;5125781;23;20043;-57
2023/06/03 11:05:26;;;;;;;2.67;2.00;;;;;;;;;;5125855;23;20089;-57
2023/06/03 11:07:46;;;;;;;1.30;1.17;;;;;;;;;;5125971;23;20124;-57
2023/06/03 11:10:26;;;;;;;1.00;1.00;;;;;;;;;;5125728;23;20334;-57
2023/06/03 11:12:47;;;;;;;5.18;1.17;;;;;;;;;;5125567;23;20068;-57
2023/06/03 11:15:08;;;;;;;1.42;1.40;;;;;;;;;;5125679;23;20043;-57
2023/06/03 11:17:28;;;;;;;2.75;1.45;;;;;;;;;;5125832;23;20366;-57
2023/06/03 11:19:50;;;;;;;5.18;1.38;;;;;;;;;;5114357;23;20116;-57
2023/06/03 11:22:11;;;;;;;2.40;1.30;;;;;;;;;;5125683;23;20032;-57
2023/06/03 11:24:41;;;;;;;1.58;1.48;;;;;;;;;;5126814;23;20024;-57
2023/06/03 11:27:02;;;;;;;1.50;1.50;;;;;;;;;;5126751;23;20032;-57
2023/06/03 11:29:41;;;;;;;2.20;2.08;;;;;;;;;;5126585;23;20044;-56
2023/06/03 11:32:20;;;;;;;2.08;1.98;;;;;;;;;;5126514;23;20028;-57
2023/06/03 11:34:43;;;;;;;1.70;1.52;;;;;;;;;;5126619;23;20076;-57
2023/06/03 11:37:03;;;;;;;2.25;1.60;;;;;;;;;;5126742;23;20028;-57
2023/06/03 11:39:24;;;;;;;4.32;1.95;;;;;;;;;;5126562;23;20071;-57
2023/06/03 11:42:05;;;;;;;2.20;1.80;;;;;;;;;;5126484;23;20024;-57
2023/06/03 11:44:25;;;;;;;2.00;1.90;;;;;;;;;;5126467;23;20024;-57
2023/06/03 11:46:53;;;;;;;2.13;1.50;;;;;;;;;;5126684;23;20028;-57
2023/06/03 11:49:13;;;;;;;3.10;2.15;;;;;;;;;;5126645;23;20269;-57
2023/06/03 11:51:34;;;;;;;2.65;1.73;;;;;;;;;;5126477;23;20108;-56
2023/06/03 11:53:54;;;;;;;2.05;1.95;;;;;;;;;;5126435;23;20035;-56
2023/06/03 11:56:15;;;;;;;3.90;1.98;;;;;;;;;;5126705;23;20024;-56
2023/06/03 11:58:37;;;;;;;2.20;1.98;;;;;;;;;;5126507;23;20431;-56
2023/06/03 12:01:03;;;;;;;2.78;1.50;;;;;;;;;;5126483;23;20095;-57
2023/06/03 12:03:24;;;;;;;1.63;1.52;;;;;;;;;;5126708;23;20076;-56
2023/06/03 12:05:55;;;;;;;1.67;1.40;;;;;;;;;;5126564;23;20275;-56
2023/06/03 12:08:16;;;;;;;1.70;1.42;;;;;;;;;;5126409;23;20024;-56
2023/06/03 12:10:43;;;;;;;1.80;1.70;;;;;;;;;;5126410;23;20028;-56
2023/06/03 12:13:03;;;;;;;2.15;2.05;;;;;;;;;;5105611;23;20023;-56
2023/06/03 12:15:24;;;;;;;2.10;1.90;;;;;;;;;;5126572;23;20047;-56
2023/06/03 12:17:43;;;;;;;5.97;2.22;;;;;;;;;;5126333;23;20024;-56
2023/06/03 12:20:04;;;;;;;1.58;1.58;;;;;;;;;;5126579;23;20064;-56
2023/06/03 12:22:25;;;;;;;1.80;1.80;;;;;;;;;;5126696;23;20064;-56
2023/06/03 12:24:46;;;;;;;3.37;1.90;;;;;;;;;;5126397;23;20027;-57
2023/06/03 12:27:17;;;;;;;2.13;2.00;;;;;;;;;;5126426;23;20031;-56
2023/06/03 12:29:44;;;;;;;2.20;2.17;;;;;;;;;;5126571;23;20076;-56
2023/06/03 12:32:05;;;;;;;1.95;1.85;;;;;;;;;;5126488;23;20248;-56
2023/06/03 12:34:36;;;;;;;3.42;2.30;;;;;;;;;;5126138;23;20216;-56
2023/06/03 12:36:56;;;;;;;2.60;2.40;;;;;;;;;;5126375;23;20071;-56
2023/06/03 12:39:18;;;;;;;3.67;1.98;;;;;;;;;;5126521;23;20076;-56
2023/06/03 12:41:38;;;;;;;2.08;1.98;;;;;;;;;;5126502;23;20024;-56
2023/06/03 12:44:02;;;;;;;2.40;2.20;;;;;;;;;;5126353;23;20088;-56
2023/06/03 12:46:24;;;;;;;5.57;3.80;;;;;;;;;;5124936;23;20063;-56
2023/06/03 12:48:44;;;;;;;1.95;1.85;;;;;;;;;;5126470;23;20085;-56
2023/06/03 12:51:20;;;;;;;1.73;1.73;;;;;;;;;;5126227;23;20216;-56
2023/06/03 12:53:42;;;;;;;2.10;2.00;;;;;;;;;;5126102;23;20031;-56
2023/06/03 12:56:02;;;;;;;2.33;2.22;;;;;;;;;;5126438;23;20032;-56
2023/06/03 12:58:22;;;;;;;5.55;1.95;;;;;;;;;;5126359;23;20327;-56
2023/06/03 13:00:43;;;;;;;2.55;2.45;;;;;;;;;;5126316;23;20075;-56
2023/06/03 13:03:03;;;;;;;2.65;2.55;;;;;;;;;;5126442;23;20334;-56
2023/06/03 13:05:24;;;;;;;1.73;1.63;;;;;;;;;;5126526;23;20051;-56
2023/06/03 13:07:45;;;;;;;7.00;2.45;;;;;;;;;;5126218;23;20067;-56
2023/06/03 13:10:06;;;;;;;2.55;2.35;;;;;;;;;;5126243;23;20063;-56
2023/06/03 13:12:27;;;;;;;3.05;2.88;;;;;;;;;;5126287;23;20342;-56
2023/06/03 13:14:48;;;;;;;3.95;3.38;;;;;;;;;;5126320;23;20027;-56
2023/06/03 13:17:08;;;;;;;2.47;2.28;;;;;;;;;;5126234;23;20023;-56
2023/06/03 13:19:28;;;;;;;2.88;2.75;;;;;;;;;;5126407;23;20063;-57
2023/06/03 13:21:48;;;;;;;2.80;2.70;;;;;;;;;;5126247;23;20024;-56
2023/06/03 13:24:08;;;;;;;3.65;3.55;;;;;;;;;;5126067;23;20023;-57
2023/06/03 13:26:29;;;;;;;3.03;2.85;;;;;;;;;;5126334;23;20027;-56
2023/06/03 13:28:50;;;;;;;2.15;2.13;;;;;;;;;;5126242;23;20024;-57
2023/06/03 13:31:10;;;;;;;6.82;2.53;;;;;;;;;;5126097;23;20028;-57
2023/06/03 13:33:32;;;;;;;2.03;2.03;;;;;;;;;;5126219;23;20048;-56
2023/06/03 13:35:52;;;;;;;2.75;2.65;;;;;;;;;;5126372;23;20064;-56
2023/06/03 13:38:13;;;;;;;2.25;2.15;;;;;;;;;;5126455;23;20087;-57
2023/06/03 13:40:33;;;;;;;3.28;3.08;;;;;;;;;;5126044;23;20044;-56
2023/06/03 13:42:53;;;;;;;2.97;2.80;;;;;;;;;;5126298;23;20063;-56
2023/06/03 13:45:13;;;;;;;3.33;3.22;;;;;;;;;;5125762;23;20024;-56
2023/06/03 13:47:34;;;;;;;4.63;3.38;;;;;;;;;;5134315;23;20043;-56
2023/06/03 13:49:56;;;;;;;3.38;3.28;;;;;;;;;;5126261;23;20339;-56
2023/06/03 13:52:16;;;;;;;3.15;3.00;;;;;;;;;;5094367;23;20075;-57
2023/06/03 13:54:37;;;;;;;3.63;3.33;;;;;;;;;;5125970;23;20061;-57
2023/06/03 13:56:57;;;;;;;3.40;3.20;;;;;;;;;;5126253;23;20281;-57
2023/06/03 13:59:17;;;;;;;3.13;2.90;;;;;;;;;;5126227;23;20085;-57
2023/06/03 14:01:38;;;;;;;3.20;3.00;;;;;;;;;;5126018;23;20032;-57
2023/06/03 14:03:58;;;;;;;3.22;3.00;;;;;;;;;;5126194;23;20024;-56
2023/06/03 14:06:21;;;;;;;2.78;2.55;;;;;;;;;;5126250;23;20256;-57
2023/06/03 14:08:41;;;;;;;2.65;2.55;;;;;;;;;;5126117;23;20045;-57
2023/06/03 14:11:01;;;;;;;3.03;2.80;;;;;;;;;;5126030;23;20043;-56